Time;durP1;ratioP1;P1;durP2;ratioP2;P2;SDS_P1;SDS_P2;PMS_P1;PMS_P2;Temp;Humidity;BMP_temperature;BMP_pressure;BME280_temperature;BME280_humidity;BME280_pressure;Samples;Min_cycle;Max_cycle;Signal;HPM_P1;HPM_P2
2024/03/05 00:00:28;;;;;;;44.10;25.00;;;;;;;;;;5002837;28;25094;-66
2024/03/05 00:02:54;;;;;;;43.05;25.38;;;;;;;;;;4999659;28;25051;-66
2024/03/05 00:05:20;;;;;;;37.55;24.77;;;;;;;;;;5009272;28;25098;-67
2024/03/05 00:07:46;;;;;;;38.22;24.85;;;;;;;;;;5002560;28;25078;-64
2024/03/05 00:10:12;;;;;;;42.33;24.85;;;;;;;;;;5008912;28;25058;-63
2024/03/05 00:12:38;;;;;;;42.88;25.95;;;;;;;;;;4988825;28;25081;-64
2024/03/05 00:15:07;;;;;;;47.63;26.52;;;;;;;;;;4999989;28;25061;-64
2024/03/05 00:17:33;;;;;;;42.28;25.25;;;;;;;;;;4987552;28;25048;-64
2024/03/05 00:19:59;;;;;;;39.85;25.95;;;;;;;;;;4997668;28;25084;-65
2024/03/05 00:22:25;;;;;;;36.63;24.60;;;;;;;;;;4980708;28;25062;-64
2024/03/05 00:24:51;;;;;;;46.22;25.48;;;;;;;;;;4999835;28;25050;-66
2024/03/05 00:27:18;;;;;;;42.47;24.40;;;;;;;;;;5003755;28;25055;-65
2024/03/05 00:29:44;;;;;;;44.42;25.27;;;;;;;;;;4995577;28;25084;-64
2024/03/05 00:32:10;;;;;;;42.13;25.10;;;;;;;;;;5003264;28;25050;-67
2024/03/05 00:34:36;;;;;;;40.08;25.65;;;;;;;;;;4989297;28;25106;-64
2024/03/05 00:37:02;;;;;;;40.80;25.23;;;;;;;;;;5003471;28;25114;-64
2024/03/05 00:39:28;;;;;;;42.63;27.63;;;;;;;;;;4999386;28;25119;-65
2024/03/05 00:41:54;;;;;;;46.97;25.05;;;;;;;;;;5003228;28;25080;-64
2024/03/05 00:44:20;;;;;;;49.80;27.30;;;;;;;;;;5004940;28;25067;-65
2024/03/05 00:46:46;;;;;;;37.15;25.63;;;;;;;;;;5029380;28;25069;-64
2024/03/05 00:49:12;;;;;;;45.42;27.80;;;;;;;;;;5019757;28;25067;-65
2024/03/05 00:51:38;;;;;;;43.38;27.63;;;;;;;;;;5021836;28;25055;-66
2024/03/05 00:54:04;;;;;;;49.60;26.90;;;;;;;;;;4999450;28;25068;-65
2024/03/05 00:56:30;;;;;;;46.00;26.00;;;;;;;;;;5003341;28;25054;-65
2024/03/05 00:58:57;;;;;;;43.22;26.08;;;;;;;;;;5000823;28;25146;-64
2024/03/05 01:01:23;;;;;;;45.00;27.70;;;;;;;;;;4987858;28;25105;-67
2024/03/05 01:03:49;;;;;;;46.22;25.98;;;;;;;;;;5002807;28;25094;-66
2024/03/05 01:06:15;;;;;;;46.33;26.83;;;;;;;;;;5002934;28;25072;-64
2024/03/05 01:08:41;;;;;;;51.25;28.38;;;;;;;;;;5001564;28;25132;-64
2024/03/05 01:11:07;;;;;;;48.58;27.95;;;;;;;;;;4996281;28;25065;-64
2024/03/05 01:13:33;;;;;;;50.45;28.77;;;;;;;;;;4989220;28;25109;-64
2024/03/05 01:16:00;;;;;;;45.40;26.83;;;;;;;;;;4999031;28;25059;-67
2024/03/05 01:18:26;;;;;;;43.65;27.35;;;;;;;;;;5003337;28;25093;-64
2024/03/05 01:20:53;;;;;;;49.03;28.42;;;;;;;;;;4989961;28;25105;-65
2024/03/05 01:23:19;;;;;;;41.35;26.83;;;;;;;;;;5004083;28;25053;-65
2024/03/05 01:25:45;;;;;;;53.95;29.90;;;;;;;;;;4983876;28;25123;-65
2024/03/05 01:28:11;;;;;;;52.35;29.58;;;;;;;;;;5001069;28;25133;-65
2024/03/05 01:30:39;;;;;;;47.20;28.25;;;;;;;;;;5003572;28;25069;-64
2024/03/05 01:33:19;;;;;;;44.80;28.08;;;;;;;;;;4997670;28;25056;-65
2024/03/05 01:35:47;;;;;;;48.70;29.48;;;;;;;;;;4999009;28;25164;-65
2024/03/05 01:38:13;;;;;;;57.35;33.05;;;;;;;;;;4994873;28;25090;-63
2024/03/05 01:40:40;;;;;;;45.67;28.13;;;;;;;;;;5002532;28;25046;-64
2024/03/05 01:43:06;;;;;;;63.65;33.38;;;;;;;;;;4999986;28;25054;-65
2024/03/05 01:45:33;;;;;;;59.70;34.15;;;;;;;;;;5001463;28;25056;-64
2024/03/05 01:47:59;;;;;;;52.60;30.95;;;;;;;;;;4999632;28;25044;-64
2024/03/05 01:50:26;;;;;;;55.58;32.00;;;;;;;;;;4999298;28;25054;-65
2024/03/05 01:52:52;;;;;;;56.97;32.17;;;;;;;;;;5001952;28;25185;-66
2024/03/05 01:55:19;;;;;;;67.68;34.67;;;;;;;;;;5004075;28;25107;-65
2024/03/05 01:57:46;;;;;;;59.00;34.13;;;;;;;;;;4996157;28;25058;-66
2024/03/05 02:00:15;;;;;;;60.55;33.17;;;;;;;;;;5004141;28;25048;-64
2024/03/05 02:02:42;;;;;;;59.50;32.70;;;;;;;;;;4999631;28;25046;-65
2024/03/05 02:05:08;;;;;;;65.45;35.17;;;;;;;;;;5005015;28;25044;-67
2024/03/05 02:07:38;;;;;;;64.15;35.50;;;;;;;;;;4984065;28;25069;-65
2024/03/05 02:10:07;;;;;;;59.92;35.72;;;;;;;;;;4998959;28;25065;-67
2024/03/05 02:12:37;;;;;;;81.10;39.33;;;;;;;;;;4992862;28;25079;-64
2024/03/05 02:15:04;;;;;;;68.95;38.53;;;;;;;;;;4992981;28;25048;-66
2024/03/05 02:17:31;;;;;;;60.10;35.25;;;;;;;;;;4994269;28;25127;-67
2024/03/05 02:19:57;;;;;;;68.53;35.75;;;;;;;;;;4998661;28;25071;-66
2024/03/05 02:22:23;;;;;;;65.97;38.03;;;;;;;;;;4993432;28;25112;-67
2024/03/05 02:24:49;;;;;;;75.05;39.67;;;;;;;;;;4986435;28;25070;-66
2024/03/05 02:27:15;;;;;;;68.07;37.80;;;;;;;;;;4974216;28;25076;-65
2024/03/05 02:29:42;;;;;;;80.32;41.05;;;;;;;;;;4996509;28;25168;-65
2024/03/05 02:32:09;;;;;;;77.00;39.42;;;;;;;;;;4981558;28;25067;-67
2024/03/05 02:34:35;;;;;;;74.20;39.88;;;;;;;;;;4986112;28;25074;-65
2024/03/05 02:37:01;;;;;;;78.40;41.03;;;;;;;;;;5003007;28;25061;-67
2024/03/05 02:39:27;;;;;;;75.90;39.67;;;;;;;;;;4996555;28;25061;-64
2024/03/05 02:41:55;;;;;;;73.70;40.83;;;;;;;;;;4995127;28;25144;-68
2024/03/05 02:44:21;;;;;;;80.53;40.70;;;;;;;;;;4999515;28;25087;-66
2024/03/05 02:46:49;;;;;;;89.57;46.33;;;;;;;;;;4990184;28;25095;-68
2024/03/05 02:49:15;;;;;;;83.65;42.22;;;;;;;;;;4998744;28;25109;-64
2024/03/05 02:51:41;;;;;;;81.70;41.92;;;;;;;;;;5000645;28;25089;-67
2024/03/05 02:54:07;;;;;;;89.45;44.28;;;;;;;;;;5001734;28;25080;-65
2024/03/05 02:56:33;;;;;;;94.65;44.60;;;;;;;;;;4998175;28;25053;-66
2024/03/05 02:58:59;;;;;;;87.38;44.22;;;;;;;;;;4999864;28;25055;-65
2024/03/05 03:01:25;;;;;;;84.40;42.03;;;;;;;;;;5000890;28;25061;-65
2024/03/05 03:03:51;;;;;;;89.95;43.58;;;;;;;;;;5002711;28;25093;-66
2024/03/05 03:06:18;;;;;;;80.07;42.15;;;;;;;;;;5005700;28;25053;-65
2024/03/05 03:08:44;;;;;;;82.07;42.10;;;;;;;;;;5022417;28;25078;-65
2024/03/05 03:11:16;;;;;;;84.13;43.08;;;;;;;;;;5018915;28;25071;-67
2024/03/05 03:13:42;;;;;;;;;;;;;;;;;;5019011;28;25113;-67
2024/03/05 03:16:08;;;;;;;95.65;46.05;;;;;;;;;;5005073;28;24152;-67
2024/03/05 03:18:34;;;;;;;87.57;42.13;;;;;;;;;;5002943;28;25058;-63
2024/03/05 03:21:03;;;;;;;87.00;44.88;;;;;;;;;;5000907;28;25101;-66
2024/03/05 03:23:29;;;;;;;87.13;42.90;;;;;;;;;;4994676;28;25101;-64
2024/03/05 03:25:58;;;;;;;82.85;41.72;;;;;;;;;;4976045;28;25113;-67
2024/03/05 03:28:24;;;;;;;81.63;41.42;;;;;;;;;;5007892;28;25050;-66
2024/03/05 03:30:54;;;;;;;83.07;44.22;;;;;;;;;;5005834;28;25067;-67
2024/03/05 03:33:21;;;;;;;89.45;43.88;;;;;;;;;;4998332;28;25096;-66
2024/03/05 03:35:47;;;;;;;87.15;43.88;;;;;;;;;;5007373;28;25065;-64
2024/03/05 03:38:13;;;;;;;85.68;45.63;;;;;;;;;;4994412;28;25061;-65
2024/03/05 03:40:41;;;;;;;86.10;43.75;;;;;;;;;;5003706;28;25070;-64
2024/03/05 03:43:10;;;;;;;89.32;42.65;;;;;;;;;;5002543;28;25162;-67
2024/03/05 03:45:36;;;;;;;94.40;46.85;;;;;;;;;;5005079;28;25094;-64
2024/03/05 03:48:02;;;;;;;83.38;43.03;;;;;;;;;;5001199;28;25066;-66
2024/03/05 03:50:28;;;;;;;93.30;45.83;;;;;;;;;;5003631;28;24781;-66
2024/03/05 03:52:54;;;;;;;82.15;43.88;;;;;;;;;;4999979;28;25099;-66
2024/03/05 03:55:20;;;;;;;89.32;45.28;;;;;;;;;;4998104;28;25117;-65
2024/03/05 03:57:47;;;;;;;83.35;44.28;;;;;;;;;;4997670;28;25082;-65
2024/03/05 04:00:16;;;;;;;91.55;44.40;;;;;;;;;;4998466;28;25057;-65
2024/03/05 04:02:42;;;;;;;94.68;47.58;;;;;;;;;;5002110;28;25074;-65
2024/03/05 04:05:09;;;;;;;98.93;47.55;;;;;;;;;;5002219;28;25152;-67
2024/03/05 04:07:36;;;;;;;85.68;43.58;;;;;;;;;;5003488;28;25051;-65
2024/03/05 04:10:02;;;;;;;86.53;47.08;;;;;;;;;;4999153;28;25067;-67
2024/03/05 04:12:28;;;;;;;92.28;45.88;;;;;;;;;;4982328;28;25085;-65
2024/03/05 04:14:55;;;;;;;88.53;45.50;;;;;;;;;;5000066;28;25129;-65
2024/03/05 04:17:21;;;;;;;97.75;47.45;;;;;;;;;;4998647;28;25063;-64
2024/03/05 04:19:48;;;;;;;94.78;45.40;;;;;;;;;;5002879;28;25056;-65
2024/03/05 04:22:15;;;;;;;95.78;48.40;;;;;;;;;;5003050;28;25154;-65
2024/03/05 04:24:49;;;;;;;87.57;46.53;;;;;;;;;;4999550;28;25085;-66
2024/03/05 04:27:18;;;;;;;96.25;47.92;;;;;;;;;;4995167;28;25191;-65
2024/03/05 04:29:47;;;;;;;91.97;46.20;;;;;;;;;;5001532;28;25071;-65
2024/03/05 04:32:14;;;;;;;87.13;43.92;;;;;;;;;;4997827;28;25075;-65
2024/03/05 04:34:42;;;;;;;85.78;43.65;;;;;;;;;;5010061;28;25057;-67
2024/03/05 04:37:11;;;;;;;97.50;46.42;;;;;;;;;;5002485;28;25057;-67
2024/03/05 04:39:38;;;;;;;92.43;45.38;;;;;;;;;;5002771;28;25124;-65
2024/03/05 04:42:06;;;;;;;83.35;43.10;;;;;;;;;;5001413;28;25062;-66
2024/03/05 04:44:34;;;;;;;86.88;44.30;;;;;;;;;;5002940;28;25138;-68
2024/03/05 04:47:00;;;;;;;80.85;43.55;;;;;;;;;;5004908;28;25056;-65
2024/03/05 04:49:26;;;;;;;93.25;45.33;;;;;;;;;;4983469;28;25052;-65
2024/03/05 04:51:52;;;;;;;91.22;44.20;;;;;;;;;;4998061;28;25044;-65
2024/03/05 04:54:19;;;;;;;89.10;45.75;;;;;;;;;;4998694;28;25148;-66
2024/03/05 04:56:47;;;;;;;84.53;44.78;;;;;;;;;;5003301;28;25055;-66
2024/03/05 04:59:13;;;;;;;96.22;47.58;;;;;;;;;;4997455;28;25064;-66
2024/03/05 05:01:39;;;;;;;112.90;50.75;;;;;;;;;;5003199;28;25044;-65
2024/03/05 05:04:05;;;;;;;97.65;48.88;;;;;;;;;;5002090;28;25153;-65
2024/03/05 05:06:32;;;;;;;91.30;48.28;;;;;;;;;;5004348;28;25093;-66
2024/03/05 05:08:59;;;;;;;91.15;45.95;;;;;;;;;;5002126;28;25083;-64
2024/03/05 05:11:25;;;;;;;108.68;50.95;;;;;;;;;;4988454;28;25109;-66
2024/03/05 05:13:51;;;;;;;85.50;47.97;;;;;;;;;;5004246;28;25063;-66
2024/03/05 05:16:18;;;;;;;101.55;49.78;;;;;;;;;;5005396;28;25052;-67
2024/03/05 05:18:44;;;;;;;87.38;46.80;;;;;;;;;;4996571;28;25101;-66
2024/03/05 05:21:10;;;;;;;102.28;48.88;;;;;;;;;;4990617;28;25087;-67
2024/03/05 05:23:36;;;;;;;112.95;55.15;;;;;;;;;;4997466;28;25222;-66
2024/03/05 05:26:02;;;;;;;102.38;52.25;;;;;;;;;;5023433;28;25095;-67
2024/03/05 05:28:28;;;;;;;101.28;50.00;;;;;;;;;;5027815;28;25077;-66
2024/03/05 05:30:54;;;;;;;106.10;52.35;;;;;;;;;;5023562;28;25069;-68
2024/03/05 05:33:20;;;;;;;112.45;51.75;;;;;;;;;;5018715;28;25127;-66
2024/03/05 05:35:46;;;;;;;108.97;52.78;;;;;;;;;;5016839;28;25058;-65
2024/03/05 05:38:12;;;;;;;113.63;54.28;;;;;;;;;;5004988;28;25082;-67
2024/03/05 05:40:38;;;;;;;113.18;52.30;;;;;;;;;;5007490;28;25079;-66
2024/03/05 05:43:06;;;;;;;101.60;50.58;;;;;;;;;;5001896;28;25054;-66
2024/03/05 05:45:33;;;;;;;104.75;52.13;;;;;;;;;;4993433;28;25115;-66
2024/03/05 05:47:59;;;;;;;105.90;51.95;;;;;;;;;;5000142;28;25056;-66
2024/03/05 05:50:28;;;;;;;104.22;52.38;;;;;;;;;;4997137;28;25091;-66
2024/03/05 05:52:55;;;;;;;107.05;51.47;;;;;;;;;;4984488;28;25311;-66
2024/03/05 05:55:24;;;;;;;119.45;52.30;;;;;;;;;;4998906;28;25087;-66
2024/03/05 05:57:51;;;;;;;103.35;53.92;;;;;;;;;;4982704;28;25134;-66
2024/03/05 06:00:31;;;;;;;109.90;52.83;;;;;;;;;;4998250;28;25149;-66
2024/03/05 06:02:58;;;;;;;95.55;49.53;;;;;;;;;;4993725;28;25157;-65
2024/03/05 06:05:25;;;;;;;103.90;51.33;;;;;;;;;;5000139;28;25150;-67
2024/03/05 06:07:51;;;;;;;103.40;51.22;;;;;;;;;;4998854;28;25052;-66
2024/03/05 06:10:17;;;;;;;100.40;48.28;;;;;;;;;;4995124;28;25072;-67
2024/03/05 06:12:45;;;;;;;104.00;51.15;;;;;;;;;;4999480;28;25073;-65
2024/03/05 06:15:11;;;;;;;102.82;51.75;;;;;;;;;;4996750;28;25130;-66
2024/03/05 06:17:38;;;;;;;109.20;53.40;;;;;;;;;;4998175;28;25044;-67
2024/03/05 06:20:05;;;;;;;105.68;52.47;;;;;;;;;;4987690;28;25059;-67
2024/03/05 06:22:31;;;;;;;97.07;50.67;;;;;;;;;;4995456;28;25134;-65
2024/03/05 06:24:57;;;;;;;97.13;50.13;;;;;;;;;;4999019;28;25158;-66
2024/03/05 06:27:23;;;;;;;109.57;53.75;;;;;;;;;;5001250;28;25108;-67
2024/03/05 06:29:49;;;;;;;107.35;51.78;;;;;;;;;;5003232;28;25061;-67
2024/03/05 06:32:16;;;;;;;87.88;46.28;;;;;;;;;;4991407;28;25055;-67
2024/03/05 06:34:42;;;;;;;99.05;48.63;;;;;;;;;;5000003;28;25064;-67
2024/03/05 06:37:08;;;;;;;92.97;48.05;;;;;;;;;;5000372;28;25101;-68
2024/03/05 06:39:41;;;;;;;90.45;47.05;;;;;;;;;;4996582;28;25060;-67
2024/03/05 06:42:10;;;;;;;96.95;49.67;;;;;;;;;;4999409;28;25124;-67
2024/03/05 06:44:36;;;;;;;98.50;50.53;;;;;;;;;;4989598;28;25095;-65
2024/03/05 06:47:04;;;;;;;93.72;48.45;;;;;;;;;;5002162;28;30649;-66
2024/03/05 06:49:38;;;;;;;85.93;47.08;;;;;;;;;;4996473;28;25069;-67
2024/03/05 06:57:35;;;;;;;80.20;45.20;;;;;;;;;;4994083;28;25090;-66
2024/03/05 07:00:15;;;;;;;85.10;47.92;;;;;;;;;;5000250;28;25110;-66
2024/03/05 07:02:41;;;;;;;74.53;45.25;;;;;;;;;;4992531;28;25071;-67
2024/03/05 07:05:08;;;;;;;79.00;46.80;;;;;;;;;;4997384;28;25092;-65
2024/03/05 07:07:34;;;;;;;73.60;45.53;;;;;;;;;;5008762;28;25084;-66
2024/03/05 07:10:00;;;;;;;75.63;45.88;;;;;;;;;;4997372;28;25066;-67
2024/03/05 07:12:26;;;;;;;67.57;42.67;;;;;;;;;;4994486;28;25063;-66
2024/03/05 07:14:52;;;;;;;72.30;44.78;;;;;;;;;;5008326;28;25052;-64
2024/03/05 07:17:20;;;;;;;69.18;42.83;;;;;;;;;;5001855;28;25153;-67
2024/03/05 07:19:47;;;;;;;70.20;45.00;;;;;;;;;;5007228;28;25087;-65
2024/03/05 07:22:13;;;;;;;68.35;43.75;;;;;;;;;;5001798;28;25142;-66
2024/03/05 07:24:39;;;;;;;73.05;45.20;;;;;;;;;;5004869;28;25105;-66
2024/03/05 07:27:05;;;;;;;72.53;44.88;;;;;;;;;;5005971;28;25074;-66
2024/03/05 07:29:31;;;;;;;67.68;42.88;;;;;;;;;;4996040;28;25089;-68
2024/03/05 07:31:57;;;;;;;67.03;42.55;;;;;;;;;;4996473;28;25159;-66
2024/03/05 07:34:23;;;;;;;70.03;41.63;;;;;;;;;;5001095;28;25078;-67
2024/03/05 07:36:49;;;;;;;70.15;43.47;;;;;;;;;;4997433;28;25046;-67
2024/03/05 07:39:16;;;;;;;71.07;42.03;;;;;;;;;;4999414;28;25055;-66
2024/03/05 07:41:42;;;;;;;73.60;43.78;;;;;;;;;;5002312;28;25065;-67
2024/03/05 07:44:08;;;;;;;68.15;42.60;;;;;;;;;;5003445;28;25097;-68
2024/03/05 07:46:34;;;;;;;66.95;42.05;;;;;;;;;;5015340;28;25070;-68
2024/03/05 07:49:00;;;;;;;61.25;41.22;;;;;;;;;;5024506;28;25075;-68
2024/03/05 07:51:29;;;;;;;58.50;41.55;;;;;;;;;;5008750;28;25064;-67
2024/03/05 07:53:58;;;;;;;58.67;40.38;;;;;;;;;;5004983;28;25076;-67
2024/03/05 07:56:24;;;;;;;47.53;36.28;;;;;;;;;;4998651;28;25077;-69
2024/03/05 07:58:50;;;;;;;53.75;39.10;;;;;;;;;;4999240;28;25099;-67
2024/03/05 08:01:16;;;;;;;54.75;38.28;;;;;;;;;;4996769;28;25063;-67
2024/03/05 08:03:42;;;;;;;53.30;38.10;;;;;;;;;;4997388;28;25080;-66
2024/03/05 08:06:08;;;;;;;52.85;36.50;;;;;;;;;;5001395;28;25068;-66
2024/03/05 08:08:34;;;;;;;51.20;36.05;;;;;;;;;;4998919;28;25092;-65
2024/03/05 08:11:00;;;;;;;49.17;36.22;;;;;;;;;;5004880;28;25065;-67
2024/03/05 08:13:26;;;;;;;50.90;36.28;;;;;;;;;;5003903;28;25082;-65
2024/03/05 08:15:52;;;;;;;48.35;36.72;;;;;;;;;;5003018;28;25074;-66
2024/03/05 08:18:18;;;;;;;53.20;36.90;;;;;;;;;;4981928;28;25163;-65
2024/03/05 08:20:44;;;;;;;57.55;37.22;;;;;;;;;;5003382;28;25134;-67
2024/03/05 08:23:11;;;;;;;49.72;35.92;;;;;;;;;;4993930;28;25086;-68
2024/03/05 08:25:37;;;;;;;52.22;35.67;;;;;;;;;;4997698;28;25065;-65
2024/03/05 08:28:04;;;;;;;49.40;34.78;;;;;;;;;;4999964;28;25108;-66
2024/03/05 08:30:31;;;;;;;55.40;35.38;;;;;;;;;;4997356;28;25135;-67
2024/03/05 08:32:57;;;;;;;47.88;36.03;;;;;;;;;;4998195;28;25170;-65
2024/03/05 08:35:25;;;;;;;46.67;32.78;;;;;;;;;;4984387;28;25088;-66
2024/03/05 08:37:51;;;;;;;47.28;34.33;;;;;;;;;;4994659;28;25054;-69
2024/03/05 08:40:19;;;;;;;48.42;35.58;;;;;;;;;;4999484;28;25096;-67
2024/03/05 08:42:46;;;;;;;47.05;35.78;;;;;;;;;;5002724;28;25043;-67
2024/03/05 08:45:15;;;;;;;52.13;35.40;;;;;;;;;;4997820;28;25054;-66
2024/03/05 08:47:44;;;;;;;51.50;34.78;;;;;;;;;;4990445;28;25130;-65
2024/03/05 08:50:11;;;;;;;45.50;32.70;;;;;;;;;;4981663;28;25065;-66
2024/03/05 08:52:37;;;;;;;47.38;32.47;;;;;;;;;;4998169;28;25093;-68
2024/03/05 08:55:05;;;;;;;49.13;33.67;;;;;;;;;;5001576;28;25059;-66
2024/03/05 08:57:31;;;;;;;49.70;34.35;;;;;;;;;;4994828;28;25125;-64
2024/03/05 09:00:01;;;;;;;40.17;30.77;;;;;;;;;;4999147;28;25059;-67
2024/03/05 09:02:27;;;;;;;40.58;30.88;;;;;;;;;;4996098;28;25058;-68
2024/03/05 09:04:53;;;;;;;45.33;31.45;;;;;;;;;;5004477;28;25110;-66
2024/03/05 09:07:20;;;;;;;43.80;31.80;;;;;;;;;;5005342;28;25077;-66
2024/03/05 09:09:47;;;;;;;49.83;30.75;;;;;;;;;;4998276;28;25065;-68
2024/03/05 09:12:13;;;;;;;41.75;32.65;;;;;;;;;;5000120;28;25069;-68
2024/03/05 09:14:40;;;;;;;42.95;29.95;;;;;;;;;;4987438;28;25158;-66
2024/03/05 09:17:06;;;;;;;39.63;29.10;;;;;;;;;;5006122;28;25113;-70
2024/03/05 09:19:32;;;;;;;39.95;28.27;;;;;;;;;;5007677;28;25052;-67
2024/03/05 09:21:59;;;;;;;37.92;28.45;;;;;;;;;;4986876;28;25051;-67
2024/03/05 09:24:25;;;;;;;40.30;29.25;;;;;;;;;;4991706;28;25138;-66
2024/03/05 09:26:51;;;;;;;41.08;28.13;;;;;;;;;;4983135;28;25079;-66
2024/03/05 09:29:17;;;;;;;37.10;26.30;;;;;;;;;;4996901;28;25098;-70
2024/03/05 09:31:43;;;;;;;35.67;26.67;;;;;;;;;;4993273;28;25090;-66
2024/03/05 09:34:09;;;;;;;37.80;27.52;;;;;;;;;;4995256;28;25127;-67
2024/03/05 09:36:35;;;;;;;34.45;27.15;;;;;;;;;;4997419;28;25139;-69
2024/03/05 09:39:03;;;;;;;31.70;25.67;;;;;;;;;;4999460;28;25053;-68
2024/03/05 09:41:31;;;;;;;36.22;25.15;;;;;;;;;;5003606;28;25069;-66
2024/03/05 09:43:58;;;;;;;33.42;25.42;;;;;;;;;;4995110;28;25075;-65
2024/03/05 09:46:25;;;;;;;35.90;25.25;;;;;;;;;;5004566;28;25079;-67
2024/03/05 09:48:53;;;;;;;29.45;23.63;;;;;;;;;;4994959;28;25178;-67
2024/03/05 09:51:20;;;;;;;31.83;23.73;;;;;;;;;;4987458;28;25048;-66
2024/03/05 09:53:46;;;;;;;32.38;23.25;;;;;;;;;;5005266;28;25087;-67
2024/03/05 09:56:15;;;;;;;33.17;24.77;;;;;;;;;;4998619;28;25079;-66
2024/03/05 09:58:41;;;;;;;36.53;25.75;;;;;;;;;;4993833;28;25049;-65
2024/03/05 10:01:09;;;;;;;27.90;22.88;;;;;;;;;;5004476;28;25110;-68
2024/03/05 10:03:36;;;;;;;31.08;25.10;;;;;;;;;;5025076;28;25079;-67
2024/03/05 10:06:03;;;;;;;33.95;23.70;;;;;;;;;;5019754;28;25060;-68
2024/03/05 10:08:29;;;;;;;28.65;23.48;;;;;;;;;;5024471;28;25304;-68
2024/03/05 10:11:00;;;;;;;33.55;23.98;;;;;;;;;;5012555;28;25105;-65
2024/03/05 10:13:29;;;;;;;33.90;23.08;;;;;;;;;;4995605;28;25141;-68
2024/03/05 10:15:57;;;;;;;31.92;23.23;;;;;;;;;;4992723;28;25062;-65
2024/03/05 10:18:34;;;;;;;28.88;22.25;;;;;;;;;;5002048;28;25068;-66
2024/03/05 10:21:15;;;;;;;30.50;22.50;;;;;;;;;;5000828;28;25056;-66
2024/03/05 10:23:41;;;;;;;29.10;22.25;;;;;;;;;;4999691;28;25144;-67
2024/03/05 10:26:20;;;;;;;33.20;22.95;;;;;;;;;;4994384;28;25389;-66
2024/03/05 10:28:46;;;;;;;32.90;22.80;;;;;;;;;;4999846;28;25067;-67
2024/03/05 10:31:19;;;;;;;31.45;23.27;;;;;;;;;;4999954;28;25071;-66
2024/03/05 10:33:46;;;;;;;32.88;22.15;;;;;;;;;;4996139;28;25056;-66
2024/03/05 10:36:12;;;;;;;31.48;21.90;;;;;;;;;;4979735;28;25099;-65
2024/03/05 10:38:38;;;;;;;29.05;23.05;;;;;;;;;;4996818;28;25109;-67
2024/03/05 10:41:07;;;;;;;30.02;22.08;;;;;;;;;;5001049;28;25079;-66
2024/03/05 10:43:33;;;;;;;24.77;20.65;;;;;;;;;;4978573;28;25162;-66
2024/03/05 10:46:01;;;;;;;31.63;22.83;;;;;;;;;;4994037;28;25065;-66
2024/03/05 10:48:27;;;;;;;26.85;21.98;;;;;;;;;;5000861;28;25047;-66
2024/03/05 10:50:57;;;;;;;30.80;21.10;;;;;;;;;;4984038;28;25087;-67
2024/03/05 10:53:25;;;;;;;27.50;20.67;;;;;;;;;;4994003;28;25175;-64
2024/03/05 10:55:53;;;;;;;26.65;20.90;;;;;;;;;;4997179;28;25074;-67
2024/03/05 10:58:57;;;;;;;26.75;20.80;;;;;;;;;;4998910;28;25060;-67
2024/03/05 11:01:08;;;;;;;33.25;22.67;;;;;;;;;;4998877;28;25054;-66
2024/03/05 11:03:39;;;;;;;27.20;20.55;;;;;;;;;;4995344;28;25054;-67
2024/03/05 11:06:06;;;;;;;26.50;18.92;;;;;;;;;;4999700;28;25055;-66
2024/03/05 11:08:35;;;;;;;26.85;20.27;;;;;;;;;;4992606;28;25099;-66
2024/03/05 11:11:06;;;;;;;25.30;19.00;;;;;;;;;;4993296;28;25053;-67
2024/03/05 11:13:34;;;;;;;26.90;17.17;;;;;;;;;;4998849;28;25105;-68
2024/03/05 11:16:02;;;;;;;25.20;17.83;;;;;;;;;;4999772;28;25049;-66
2024/03/05 11:18:29;;;;;;;28.38;17.85;;;;;;;;;;4997624;28;25130;-68
2024/03/05 11:20:55;;;;;;;25.65;17.95;;;;;;;;;;5004860;28;25135;-66
2024/03/05 11:23:22;;;;;;;28.08;19.77;;;;;;;;;;4997381;28;25179;-66
2024/03/05 11:25:51;;;;;;;23.40;17.90;;;;;;;;;;4998065;28;25161;-67
2024/03/05 11:28:17;;;;;;;24.98;17.77;;;;;;;;;;4995978;28;25071;-66
2024/03/05 11:30:46;;;;;;;24.42;18.20;;;;;;;;;;4994623;28;25087;-65
2024/03/05 11:33:15;;;;;;;23.20;16.60;;;;;;;;;;4977950;28;25149;-67
2024/03/05 11:35:44;;;;;;;26.67;16.90;;;;;;;;;;4998618;28;25049;-67
2024/03/05 11:38:13;;;;;;;29.08;17.05;;;;;;;;;;4995341;28;25093;-65
2024/03/05 11:40:40;;;;;;;18.65;16.05;;;;;;;;;;4978067;28;25061;-66
2024/03/05 11:43:06;;;;;;;27.95;14.63;;;;;;;;;;4994884;28;25127;-68
2024/03/05 11:45:48;;;;;;;22.38;15.85;;;;;;;;;;4999064;28;25053;-66
2024/03/05 11:48:15;;;;;;;20.10;14.45;;;;;;;;;;4996667;28;25064;-65
2024/03/05 11:50:41;;;;;;;15.93;11.15;;;;;;;;;;5004423;28;25054;-67
2024/03/05 11:53:11;;;;;;;12.32;9.90;;;;;;;;;;5000778;28;25064;-65
2024/03/05 11:55:37;;;;;;;14.48;8.88;;;;;;;;;;5004561;28;25055;-65
2024/03/05 11:58:04;;;;;;;11.95;8.18;;;;;;;;;;5001916;28;25080;-66
2024/03/05 12:00:30;;;;;;;14.23;8.75;;;;;;;;;;5001427;28;25073;-67
2024/03/05 12:02:56;;;;;;;11.23;8.43;;;;;;;;;;4999544;28;25076;-66
2024/03/05 12:05:22;;;;;;;14.23;9.30;;;;;;;;;;5005428;28;25087;-66
2024/03/05 12:08:00;;;;;;;16.60;9.20;;;;;;;;;;5005632;28;25074;-66
2024/03/05 12:10:35;;;;;;;14.43;9.77;;;;;;;;;;4999397;28;25068;-66
2024/03/05 12:13:01;;;;;;;14.07;9.63;;;;;;;;;;5000814;28;25057;-66
2024/03/05 12:15:29;;;;;;;12.80;9.35;;;;;;;;;;5007832;28;25085;-67
2024/03/05 12:17:56;;;;;;;12.38;9.10;;;;;;;;;;4990290;28;25072;-65
2024/03/05 12:20:22;;;;;;;14.48;10.07;;;;;;;;;;5005143;28;25061;-66
2024/03/05 12:22:49;;;;;;;13.63;9.57;;;;;;;;;;5020846;28;25092;-66
2024/03/05 12:25:15;;;;;;;16.83;11.57;;;;;;;;;;5030834;28;25077;-67
2024/03/05 12:27:46;;;;;;;16.00;10.70;;;;;;;;;;5021077;28;25121;-65
2024/03/05 12:30:12;;;;;;;18.73;11.95;;;;;;;;;;5020639;28;25079;-66
2024/03/05 12:32:42;;;;;;;17.75;11.63;;;;;;;;;;5012001;28;25072;-66
2024/03/05 12:35:09;;;;;;;19.15;12.25;;;;;;;;;;5009781;28;25149;-68
2024/03/05 12:37:38;;;;;;;15.85;11.68;;;;;;;;;;5007537;28;25066;-67
2024/03/05 12:40:07;;;;;;;18.45;11.07;;;;;;;;;;5000013;28;25059;-65
2024/03/05 12:42:33;;;;;;;16.77;11.20;;;;;;;;;;4983908;28;25123;-64
2024/03/05 12:45:04;;;;;;;10.40;8.23;;;;;;;;;;4993083;28;25073;-66
2024/03/05 12:47:30;;;;;;;11.93;8.20;;;;;;;;;;4978853;28;25146;-67
2024/03/05 12:50:00;;;;;;;16.15;9.02;;;;;;;;;;5002448;28;25066;-66
2024/03/05 12:52:26;;;;;;;11.25;8.57;;;;;;;;;;4988486;28;25139;-70
2024/03/05 12:55:00;;;;;;;9.68;7.57;;;;;;;;;;4985544;28;25068;-66
2024/03/05 12:57:26;;;;;;;10.30;7.80;;;;;;;;;;5004090;28;25164;-66
2024/03/05 12:59:52;;;;;;;11.70;8.07;;;;;;;;;;5000343;28;25093;-65
2024/03/05 13:02:19;;;;;;;10.45;6.57;;;;;;;;;;4998643;28;25083;-65
2024/03/05 13:04:45;;;;;;;9.73;6.95;;;;;;;;;;5002754;28;25104;-66
2024/03/05 13:07:11;;;;;;;6.78;5.55;;;;;;;;;;5000886;28;25066;-67
2024/03/05 13:09:38;;;;;;;6.13;4.55;;;;;;;;;;4999977;28;25057;-66
2024/03/05 13:12:04;;;;;;;6.30;3.15;;;;;;;;;;4997312;28;25129;-66
2024/03/05 13:14:30;;;;;;;4.25;3.28;;;;;;;;;;5000958;28;25071;-68
2024/03/05 13:16:56;;;;;;;6.78;3.92;;;;;;;;;;4998215;28;25057;-66
2024/03/05 13:19:23;;;;;;;6.10;4.43;;;;;;;;;;5003323;28;25069;-67
2024/03/05 13:21:49;;;;;;;6.45;4.07;;;;;;;;;;5001768;28;25083;-66
2024/03/05 13:24:15;;;;;;;8.25;4.93;;;;;;;;;;5003300;28;25144;-68
2024/03/05 13:26:41;;;;;;;4.88;2.88;;;;;;;;;;5004010;28;25169;-65
2024/03/05 13:29:08;;;;;;;4.68;3.05;;;;;;;;;;4999136;28;25089;-68
2024/03/05 13:31:35;;;;;;;3.45;2.75;;;;;;;;;;5008579;28;25054;-68
2024/03/05 13:34:04;;;;;;;6.10;3.30;;;;;;;;;;5004696;28;25066;-66
2024/03/05 13:36:31;;;;;;;3.95;2.95;;;;;;;;;;5006592;28;25065;-66
2024/03/05 13:38:59;;;;;;;4.18;2.70;;;;;;;;;;4987117;28;25067;-65
2024/03/05 13:41:28;;;;;;;4.97;2.67;;;;;;;;;;5004247;28;25089;-65
2024/03/05 13:43:56;;;;;;;5.43;3.10;;;;;;;;;;5003996;28;25124;-67
2024/03/05 13:46:23;;;;;;;5.57;2.90;;;;;;;;;;5004923;28;25051;-66
2024/03/05 13:48:49;;;;;;;4.75;3.22;;;;;;;;;;4997594;28;25069;-66
2024/03/05 13:51:15;;;;;;;4.63;3.05;;;;;;;;;;4995525;28;25078;-66
2024/03/05 13:53:41;;;;;;;6.63;3.53;;;;;;;;;;5004408;28;25067;-68
2024/03/05 13:56:07;;;;;;;4.40;2.92;;;;;;;;;;5000505;28;25069;-67
2024/03/05 13:58:35;;;;;;;5.47;3.08;;;;;;;;;;5004295;28;25062;-66
2024/03/05 14:01:03;;;;;;;6.07;3.25;;;;;;;;;;4984544;28;25070;-67
2024/03/05 14:03:29;;;;;;;7.78;3.13;;;;;;;;;;5000403;28;25192;-68
2024/03/05 14:05:55;;;;;;;6.55;3.35;;;;;;;;;;4995909;28;25139;-68
2024/03/05 14:08:22;;;;;;;5.95;4.25;;;;;;;;;;4983973;28;25042;-66
2024/03/05 14:10:48;;;;;;;5.78;3.38;;;;;;;;;;5003233;28;25129;-66
2024/03/05 14:13:14;;;;;;;4.78;3.80;;;;;;;;;;4981968;28;25049;-67
2024/03/05 14:15:43;;;;;;;6.00;4.65;;;;;;;;;;4985771;28;25046;-66
2024/03/05 14:18:09;;;;;;;4.88;3.88;;;;;;;;;;4983999;28;25063;-67
2024/03/05 14:20:37;;;;;;;8.27;3.70;;;;;;;;;;4996932;28;25105;-67
2024/03/05 14:23:03;;;;;;;6.63;3.17;;;;;;;;;;5001953;28;25096;-69